Airfield :
LOGIN :

Register | Disclaimer

   EN    FR    IT 

 










Legend :    VFR   Marginal VFR   IFR   Intensive IFR   Very Intensive IFR
Visi :
Ceiling :
>= 8 km
>= 3000ft
5 to 8 km
1000 to 3000 ft
1500m to 5 km
500 to 1000 ft
800 to 1500m
200 to 500 ft
< 800m
< 200 ft
Symbols :   Thunderstorms  Fog  Heavy snow  Heavy precipitations  Wind > 20 kt
SIGMETs :     Misc.  Thunderstorms  Icing  Turbulence  Mountain Waves  Volcanic Ashes







- Airport Elevation : 1487 ft
- IATA code : MUC


EDDM - München Franz Josef Strauss

CURRENT METAR :
  • 190950Z VRB03KT 9999 FEW032 18/10 Q1003 BECMG 10005KT

EXPIRED METARs :
  • 190920Z VRB02KT 9999 FEW030 17/10 Q1004 BECMG 10005KT
  • 190850Z 22005KT 170V300 9999 FEW028 16/09 Q1004 BECMG 10005KT
  • 190820Z 21004KT 150V280 CAVOK 16/10 Q1004 NOSIG
  • 190750Z 26004KT 180V350 CAVOK 15/10 Q1004 NOSIG
  • 190720Z 22006KT 190V250 CAVOK 14/09 Q1004 NOSIG

TAF TAF EDDM
Valid from the 19 at 06:00 until the 20 at 12:00 UTC


190500Z 1906/2012 VRB03KT CAVOK
BECMG 1906/1908 07005KT
TEMPO 1917/1922 TSRA BKN040CB
BECMG 1917/1919 26005KT
BECMG 2001/2003 OVC006
BECMG 2006/2008 BKN012
TEMPO 2008/2012 RA
PROB30
TEMPO 2010/2012 TSRA BKN010CB
No reported NOTAMs for that airfield.



MET'MAP, your aeronautical weather chart ! - Copyright ORBIFLY December 2007 - Disclaimer

ORBIFLY MET'MAP TEAM :

Programming & Development : Alexandra Zaïnal
Concept & Development : Baudouin d'Aumeries
Co-Development & Prog : Marc-Olivier Méhu
Technical & hardware support : Manuel Goepfert

Contact : metmap@orbifly.com




SOURCES & CREDITS :

   NOAA